Terminal Aerodrome Forecast
Issued by NWS

Home | Current Version | Previous Version | Text Only | Print | Product List | Glossary On
Versions: 1 2 3 4 5 6 7 8 9 10 11 12 13 14 15 16 17 18 19 20 21
507
FTUS41 KBGM 100645 AAA
TAFRME
TAF AMD
KRME 100645Z 1007/1106 VRB03KT P6SM OVC015
      TEMPO 1007/1009 OVC009
     FM100900 VRB03KT P6SM OVC060
     FM101500 23005KT 2SM -SN OVC015
     FM102100 27011KT 3/4SM -SN OVC009=

USA.gov is the U.S. government's official web portal to all federal, state and local government web resources and services.